Time;durP1;ratioP1;P1;durP2;ratioP2;P2;SDS_P1;SDS_P2;PMS_P1;PMS_P2;Temp;Humidity;BMP_temperature;BMP_pressure;BME280_temperature;BME280_humidity;BME280_pressure;Samples;Min_cycle;Max_cycle;Signal;HPM_P1;HPM_P2
2023/10/13 00:01:34;;;;;;;26.95;17.63;;;17.00;1.00;;;;;;6096774;23;20014;-73
2023/10/13 00:04:01;;;;;;;31.75;18.42;;;17.00;1.00;;;;;;6118050;23;20103;-73
2023/10/13 00:06:27;;;;;;;27.88;17.25;;;16.80;1.00;;;;;;6095401;23;20017;-75
2023/10/13 00:08:53;;;;;;;29.33;18.27;;;18.10;1.00;;;;;;6095144;23;20025;-74
2023/10/13 00:11:19;;;;;;;30.08;18.23;;;16.90;1.00;;;;;;6119867;23;20006;-74
2023/10/13 00:13:50;;;;;;;30.70;18.70;;;18.50;1.00;;;;;;6095457;23;20085;-74
2023/10/13 00:16:28;;;;;;;28.17;19.00;;;16.90;1.00;;;;;;6120193;23;20010;-73
2023/10/13 00:18:57;;;;;;;29.00;18.85;;;17.00;1.00;;;;;;6119828;23;20029;-73
2023/10/13 00:21:32;;;;;;;33.15;18.13;;;16.80;1.00;;;;;;6119493;23;20085;-74
2023/10/13 00:24:01;;;;;;;29.08;18.00;;;17.10;1.00;;;;;;6095837;23;20046;-74
2023/10/13 00:26:29;;;;;;;24.40;17.02;;;16.80;1.00;;;;;;6120362;23;20020;-74
2023/10/13 00:31:40;;;;;;;26.90;18.73;;;17.20;22.90;;;;;;6120661;23;20073;-74
2023/10/13 00:34:12;;;;;;;29.02;18.00;;;17.00;28.40;;;;;;6120799;23;20014;-74
2023/10/13 00:37:12;;;;;;;30.02;18.80;;;17.30;57.70;;;;;;6122461;23;20486;-74
2023/10/13 00:39:36;;;;;;;28.60;20.05;;;16.70;49.80;;;;;;6119615;23;20072;-73
2023/10/13 00:42:17;;;;;;;28.67;18.30;;;16.70;61.70;;;;;;6122234;23;20037;-74
2023/10/13 00:44:48;;;;;;;25.83;19.33;;;17.00;96.20;;;;;;6122931;23;20463;-74
2023/10/13 00:47:56;;;;;;;24.80;17.42;;;16.70;91.70;;;;;;6098255;23;20025;-74
2023/10/13 00:50:12;;;;;;;24.65;17.42;;;16.70;89.90;;;;;;6119363;23;20037;-74
2023/10/13 00:52:41;;;;;;;28.73;18.25;;;16.70;99.90;;;;;;6096608;23;20460;-74
2023/10/13 00:55:09;;;;;;;21.88;16.48;;;16.90;99.90;;;;;;6120326;23;20793;-74
2023/10/13 00:57:36;;;;;;;24.90;17.45;;;17.70;99.90;;;;;;6122712;23;20020;-74
2023/10/13 01:00:12;;;;;;;26.42;17.58;;;17.10;99.90;;;;;;6096811;23;20010;-74
2023/10/13 01:02:38;;;;;;;20.92;15.30;;;16.90;99.90;;;;;;6098607;23;20018;-74
2023/10/13 01:05:09;;;;;;;26.30;16.55;;;17.10;99.90;;;;;;6121957;23;20014;-74
2023/10/13 01:07:37;;;;;;;23.08;16.40;;;17.10;99.90;;;;;;6122029;23;20519;-74
2023/10/13 01:10:13;;;;;;;20.33;14.38;;;18.60;99.90;;;;;;6095225;23;20091;-74
2023/10/13 01:12:38;;;;;;;24.35;16.00;;;16.80;99.90;;;;;;6097883;23;20021;-74
2023/10/13 01:15:07;;;;;;;19.85;13.93;;;16.50;99.90;;;;;;6121293;23;20014;-74
2023/10/13 01:17:33;;;;;;;22.27;14.45;;;17.00;99.90;;;;;;6122046;23;20014;-74
2023/10/13 01:20:04;;;;;;;22.60;13.95;;;17.40;99.90;;;;;;6120808;23;20467;-74
2023/10/13 01:22:31;;;;;;;18.38;13.07;;;18.00;99.90;;;;;;6122075;23;20029;-74
2023/10/13 01:25:06;;;;;;;17.45;13.02;;;17.00;99.90;;;;;;6122366;23;20094;-74
2023/10/13 01:27:38;;;;;;;15.80;11.25;;;17.60;99.90;;;;;;6121565;23;20049;-74
2023/10/13 01:30:13;;;;;;;15.02;10.10;;;17.50;99.90;;;;;;6095593;23;20020;-74
2023/10/13 01:32:45;;;;;;;14.57;10.00;;;17.80;99.90;;;;;;6096051;23;20050;-74
2023/10/13 01:35:10;;;;;;;14.43;9.38;;;18.10;99.90;;;;;;6073597;23;20329;-74
2023/10/13 01:37:36;;;;;;;13.32;8.35;;;17.20;99.90;;;;;;6094774;23;20010;-74
2023/10/13 01:40:02;;;;;;;11.25;7.80;;;18.70;99.90;;;;;;6095881;23;20016;-74
2023/10/13 01:42:30;;;;;;;12.40;8.35;;;17.20;99.90;;;;;;6096330;23;20344;-74
2023/10/13 01:45:05;;;;;;;11.45;8.10;;;18.10;99.90;;;;;;6097158;23;20016;-74
2023/10/13 01:47:33;;;;;;;11.85;7.13;;;17.60;99.90;;;;;;6070660;23;20104;-74
2023/10/13 01:50:14;;;;;;;10.27;7.10;;;17.20;99.90;;;;;;6071294;23;20014;-74
2023/10/13 01:52:41;;;;;;;11.23;7.13;;;17.50;99.90;;;;;;6071563;23;20092;-73
2023/10/13 01:55:10;;;;;;;10.63;6.03;;;17.00;99.90;;;;;;6071419;23;20471;-74
2023/10/13 01:57:36;;;;;;;11.73;6.35;;;18.20;99.90;;;;;;6095028;23;20030;-73
2023/10/13 02:00:18;;;;;;;10.80;5.45;;;18.50;99.90;;;;;;6069965;23;20009;-73
2023/10/13 02:02:45;;;;;;;8.80;5.40;;;17.10;99.90;;;;;;6094333;23;20849;-73
2023/10/13 02:05:12;;;;;;;10.32;5.70;;;17.50;99.90;;;;;;6071490;23;20014;-74
2023/10/13 02:07:38;;;;;;;8.88;4.80;;;16.90;99.90;;;;;;6072564;23;20009;-73
2023/10/13 02:10:05;;;;;;;7.57;4.18;;;17.00;99.90;;;;;;6091599;23;20242;-74
2023/10/13 02:12:43;;;;;;;9.55;4.65;;;18.10;99.90;;;;;;6095838;23;20014;-74
2023/10/13 02:15:26;;;;;;;9.05;5.28;;;17.80;99.90;;;;;;6095573;23;20014;-74
2023/10/13 02:17:54;;;;;;;8.90;4.63;;;17.50;99.90;;;;;;6096727;23;20022;-73
2023/10/13 02:20:23;;;;;;;13.40;5.65;;;17.80;99.90;;;;;;6069716;23;20032;-73
2023/10/13 02:22:49;;;;;;;8.85;5.53;;;17.00;99.90;;;;;;6070932;23;20032;-73
2023/10/13 02:26:11;;;;;;;11.10;5.20;;;17.30;99.90;;;;;;6097485;23;20025;-74
2023/10/13 02:28:13;;;;;;;9.88;4.97;;;17.60;99.90;;;;;;6080183;23;20072;-74
2023/10/13 02:30:44;;;;;;;;;;;17.10;99.90;;;;;;6096121;23;20074;-73
2023/10/13 02:33:13;;;;;;;9.93;5.20;;;17.50;99.90;;;;;;6095446;23;20259;-74
2023/10/13 02:35:50;;;;;;;9.35;5.57;;;17.40;99.90;;;;;;6120982;23;20016;-73
2023/10/13 02:38:25;;;;;;;11.13;6.50;;;18.20;99.90;;;;;;6092602;23;20475;-73
2023/10/13 02:40:51;;;;;;;11.27;6.45;;;17.10;99.90;;;;;;6120400;23;20089;-73
2023/10/13 02:43:17;;;;;;;11.52;7.45;;;17.70;99.90;;;;;;6095989;23;20045;-73
2023/10/13 02:45:51;;;;;;;13.90;8.02;;;18.10;99.90;;;;;;6120911;23;20042;-74
2023/10/13 02:48:17;;;;;;;12.45;7.43;;;17.20;99.90;;;;;;6096269;23;20014;-74
2023/10/13 02:50:45;;;;;;;13.82;8.15;;;17.50;99.90;;;;;;6095147;23;20160;-75
2023/10/13 02:53:13;;;;;;;12.70;7.97;;;17.30;99.90;;;;;;6119420;23;20045;-75
2023/10/13 02:55:52;;;;;;;12.70;7.78;;;18.20;99.90;;;;;;6119903;23;20081;-76
2023/10/13 02:58:18;;;;;;;11.18;7.55;;;17.10;99.90;;;;;;6120271;23;20014;-76
2023/10/13 03:00:45;;;;;;;12.52;8.82;;;17.40;99.90;;;;;;6118286;23;20108;-77
2023/10/13 03:03:14;;;;;;;14.10;8.85;;;17.00;99.90;;;;;;6120290;23;20018;-75
2023/10/13 03:05:42;;;;;;;12.77;8.93;;;17.80;99.90;;;;;;6117669;23;20032;-76
2023/10/13 03:08:10;;;;;;;17.90;9.82;;;17.30;99.90;;;;;;6096329;23;20014;-76
2023/10/13 03:10:39;;;;;;;11.88;9.30;;;17.20;99.90;;;;;;6119209;23;20010;-76
2023/10/13 03:13:08;;;;;;;14.93;9.68;;;17.30;99.90;;;;;;6094520;23;20138;-76
2023/10/13 03:15:35;;;;;;;16.33;10.65;;;17.00;99.90;;;;;;6119566;23;20451;-76
2023/10/13 03:18:02;;;;;;;17.42;11.35;;;17.90;99.90;;;;;;6120876;23;20013;-76
2023/10/13 03:20:34;;;;;;;17.27;11.00;;;17.70;99.90;;;;;;6094648;23;20471;-73
2023/10/13 03:23:00;;;;;;;18.58;11.65;;;18.30;99.90;;;;;;6119687;23;20018;-73
2023/10/13 03:25:29;;;;;;;19.10;10.45;;;18.30;99.90;;;;;;6120996;23;20060;-74
2023/10/13 03:30:34;;;;;;;15.82;9.52;;;17.80;99.90;;;;;;6119616;23;20014;-74
2023/10/13 03:33:09;;;;;;;18.08;11.43;;;18.60;99.90;;;;;;6117191;23;20387;-74
2023/10/13 03:35:42;;;;;;;18.85;11.27;;;17.00;99.90;;;;;;6119552;23;20037;-73
2023/10/13 03:38:16;;;;;;;16.38;10.27;;;17.40;99.90;;;;;;6095180;23;20014;-73
2023/10/13 03:40:48;;;;;;;15.05;10.50;;;18.20;99.90;;;;;;6118516;23;20014;-73
2023/10/13 03:43:16;;;;;;;14.70;9.30;;;17.30;99.90;;;;;;6120218;23;20475;-73
2023/10/13 03:45:48;;;;;;;14.30;10.32;;;18.30;99.90;;;;;;6119803;23;20017;-74
2023/10/13 03:51:07;;;;;;;15.65;10.93;;;17.50;99.90;;;;;;6120003;23;20060;-73
2023/10/13 03:53:34;;;;;;;15.05;10.35;;;17.60;99.90;;;;;;6117035;23;20010;-73
2023/10/13 03:56:26;;;;;;;16.10;10.32;;;17.70;99.90;;;;;;6118527;23;20359;-73
2023/10/13 03:58:53;;;;;;;15.07;11.10;;;17.20;99.90;;;;;;6119852;23;20429;-73
2023/10/13 04:01:31;;;;;;;14.00;10.20;;;17.50;99.90;;;;;;6095178;23;20010;-74
2023/10/13 04:04:03;;;;;;;16.25;9.88;;;18.30;99.90;;;;;;6119271;23;20013;-73
2023/10/13 04:06:51;;;;;;;15.93;9.10;;;17.30;1.00;;;;;;6095290;23;20014;-73
2023/10/13 04:17:22;;;;;;;12.60;8.05;;;17.20;99.90;;;;;;6121939;23;20037;-73
2023/10/13 04:39:00;;;;;;;8.00;5.70;;;16.30;1.00;;;;;;6120136;23;20022;-73
2023/10/13 04:41:45;;;;;;;11.70;6.40;;;17.70;1.00;;;;;;6095657;23;20044;-73
2023/10/13 04:57:31;;;;;;;13.55;6.80;;;19.20;1.00;;;;;;6116565;23;20025;-73
2023/10/13 06:28:40;;;;;;;7.60;3.60;;;17.40;11.60;;;;;;6122036;23;20018;-75
2023/10/13 06:29:57;;;;;;;7.03;3.50;;;17.50;38.90;;;;;;6119784;23;19916;-75
2023/10/13 06:32:25;;;;;;;9.25;3.45;;;17.80;42.50;;;;;;6118901;23;20351;-75
2023/10/13 06:34:57;;;;;;;6.28;3.33;;;17.50;63.70;;;;;;6121359;23;20016;-75
2023/10/13 06:39:51;;;;;;;7.75;3.22;;;18.10;86.60;;;;;;6119939;23;20085;-75
2023/10/13 06:42:19;;;;;;;5.93;2.70;;;17.70;68.40;;;;;;6122180;23;20024;-75
2023/10/13 06:44:48;;;;;;;6.93;3.05;;;17.70;84.00;;;;;;6120855;23;20046;-75
2023/10/13 06:47:13;;;;;;;5.43;2.70;;;18.10;89.50;;;;;;6096898;23;20014;-75
2023/10/13 06:49:43;;;;;;;6.72;2.70;;;18.10;96.00;;;;;;6095532;23;20359;-75
2023/10/13 06:52:09;;;;;;;6.47;3.05;;;17.80;98.00;;;;;;6095067;23;20116;-75
2023/10/13 06:54:39;;;;;;;6.38;2.85;;;19.00;99.90;;;;;;6121005;23;20093;-75
2023/10/13 06:57:06;;;;;;;7.38;3.75;;;18.50;99.90;;;;;;6119965;23;20089;-75
2023/10/13 06:59:36;;;;;;;5.95;2.72;;;18.30;99.90;;;;;;6120021;23;20451;-75
2023/10/13 07:02:09;;;;;;;8.75;3.75;;;18.20;99.90;;;;;;6120230;23;20093;-75
2023/10/13 07:04:39;;;;;;;9.87;4.37;;;18.30;99.90;;;;;;6097346;23;20052;-75
2023/10/13 07:07:10;;;;;;;10.18;3.67;;;17.80;99.90;;;;;;6120701;23;20245;-75
2023/10/13 07:12:27;;;;;;;9.57;4.03;;;18.50;99.90;;;;;;6120776;23;20014;-76
2023/10/13 07:14:58;;;;;;;10.02;3.53;;;17.50;99.90;;;;;;6120402;23;20097;-76
2023/10/13 07:17:24;;;;;;;11.40;3.83;;;19.10;99.90;;;;;;6097220;23;20010;-76
2023/10/13 07:19:53;;;;;;;10.90;4.28;;;17.60;99.90;;;;;;6120719;23;20040;-76
2023/10/13 07:22:20;;;;;;;12.93;4.15;;;18.00;99.90;;;;;;6121667;23;20128;-76
2023/10/13 07:24:49;;;;;;;13.75;4.55;;;17.20;99.90;;;;;;6121212;23;20064;-76
2023/10/13 07:27:35;;;;;;;11.43;3.92;;;17.50;99.90;;;;;;6097117;23;20018;-76
2023/10/13 07:30:14;;;;;;;10.45;4.10;;;18.50;99.90;;;;;;6120489;23;20503;-76
2023/10/13 07:32:45;;;;;;;17.17;5.22;;;17.80;99.90;;;;;;6095857;23;20332;-76
2023/10/13 07:35:15;;;;;;;17.77;5.07;;;17.70;99.90;;;;;;6096928;23;20014;-75
2023/10/13 07:37:44;;;;;;;11.07;4.47;;;17.50;99.90;;;;;;6096151;23;20014;-75
2023/10/13 07:43:03;;;;;;;11.25;4.80;;;18.50;99.90;;;;;;6096296;23;20141;-75
2023/10/13 07:45:35;;;;;;;11.70;4.20;;;17.40;99.90;;;;;;6072151;23;20033;-75
2023/10/13 07:48:20;;;;;;;12.23;4.40;;;17.50;99.90;;;;;;6097066;23;20302;-75
2023/10/13 07:51:03;;;;;;;13.68;4.57;;;17.80;99.90;;;;;;6072231;23;20013;-75
2023/10/13 07:53:34;;;;;;;10.82;4.95;;;18.40;99.90;;;;;;6096906;23;20005;-76
2023/10/13 07:56:07;;;;;;;10.43;4.72;;;18.70;99.90;;;;;;6096059;23;20020;-76
2023/10/13 07:58:34;;;;;;;14.50;4.87;;;18.30;99.90;;;;;;6095554;23;20490;-76
2023/10/13 08:01:09;;;;;;;15.68;4.93;;;17.50;99.90;;;;;;6095665;23;20010;-76
2023/10/13 08:03:44;;;;;;;11.52;4.80;;;17.70;99.90;;;;;;6095395;23;20348;-76
2023/10/13 08:08:39;;;;;;;14.80;5.13;;;17.50;99.90;;;;;;6096816;23;20085;-76
2023/10/13 08:13:53;;;;;;;;;;;18.00;99.90;;;;;;6097290;23;20077;-76
2023/10/13 08:16:28;;;;;;;10.15;3.88;;;17.50;99.90;;;;;;6097232;23;19996;-77
2023/10/13 08:18:53;;;;;;;;;;;18.20;99.90;;;;;;6097036;23;20014;-76
2023/10/13 08:21:22;;;;;;;15.77;4.22;;;18.40;99.90;;;;;;6095516;23;20232;-76
2023/10/13 08:26:56;;;;;;;12.25;4.70;;;17.80;99.90;;;;;;6096956;23;20106;-77
2023/10/13 08:34:38;;;;;;;10.38;4.32;;;18.80;99.90;;;;;;6115254;23;20014;-77
2023/10/13 08:48:07;;;;;;;10.70;4.47;;;18.50;99.90;;;;;;6121320;23;20060;-76
2023/10/13 08:53:32;;;;;;;11.52;4.15;;;18.20;99.90;;;;;;6121263;23;20069;-76
2023/10/13 09:01:45;;;;;;;7.60;3.70;;;18.60;99.90;;;;;;6122538;23;20018;-76
2023/10/13 09:10:11;;;;;;;9.35;3.45;;;18.50;99.90;;;;;;6122899;23;20056;-76
2023/10/13 09:12:39;;;;;;;10.45;3.58;;;17.70;99.90;;;;;;6038507;23;20019;-76
2023/10/13 09:18:13;;;;;;;13.73;4.38;;;18.30;99.90;;;;;;6122730;23;20018;-76
2023/10/13 09:20:42;;;;;;;11.48;4.72;;;18.10;99.90;;;;;;6121504;23;20018;-77
2023/10/13 09:23:09;;;;;;;13.38;4.57;;;17.60;99.90;;;;;;6122778;23;20017;-76
2023/10/13 09:25:37;;;;;;;11.05;4.80;;;18.40;99.90;;;;;;6123118;23;20018;-76
2023/10/13 09:28:14;;;;;;;12.60;4.35;;;18.10;99.90;;;;;;6122068;23;20036;-76
2023/10/13 09:30:53;;;;;;;11.18;5.10;;;17.90;99.90;;;;;;6122779;23;20384;-76
2023/10/13 09:33:29;;;;;;;10.20;4.68;;;18.30;99.90;;;;;;6098409;23;20017;-76
2023/10/13 09:35:59;;;;;;;8.10;3.95;;;17.30;99.90;;;;;;6123039;23;20017;-76
2023/10/13 09:38:27;;;;;;;12.27;4.70;;;17.50;99.90;;;;;;6098096;23;20014;-75
2023/10/13 09:40:57;;;;;;;9.80;4.78;;;17.80;99.90;;;;;;6097695;23;20459;-76
2023/10/13 09:43:23;;;;;;;10.77;4.53;;;18.00;99.90;;;;;;6122219;23;20014;-76
2023/10/13 09:46:02;;;;;;;12.98;4.68;;;18.40;99.90;;;;;;6121636;23;20014;-76
2023/10/13 09:48:33;;;;;;;11.40;5.32;;;17.40;99.90;;;;;;6097698;23;20029;-75
2023/10/13 09:51:03;;;;;;;10.07;4.63;;;17.50;99.90;;;;;;6097959;23;20085;-75
2023/10/13 09:53:31;;;;;;;11.68;4.93;;;18.50;99.90;;;;;;6122831;23;20016;-75
2023/10/13 09:56:14;;;;;;;12.00;5.10;;;17.50;99.90;;;;;;6123005;23;20010;-76
2023/10/13 09:59:08;;;;;;;14.85;6.25;;;18.40;99.90;;;;;;6122609;23;20045;-75
2023/10/13 10:01:50;;;;;;;14.98;6.68;;;18.40;99.90;;;;;;6098149;23;20009;-75
2023/10/13 10:04:18;;;;;;;11.57;4.68;;;18.90;99.90;;;;;;6098213;23;20026;-75
2023/10/13 10:06:59;;;;;;;10.65;4.95;;;18.60;99.90;;;;;;6098562;23;20014;-76
2023/10/13 10:09:37;;;;;;;9.93;4.18;;;18.40;99.90;;;;;;6097851;23;20014;-76
2023/10/13 10:12:37;;;;;;;14.93;5.18;;;17.60;99.90;;;;;;6123043;23;20033;-76
2023/10/13 10:15:02;;;;;;;9.10;4.32;;;17.90;99.90;;;;;;6099340;23;20021;-75
2023/10/13 10:17:29;;;;;;;10.15;5.32;;;18.60;99.90;;;;;;6123250;23;20010;-75
2023/10/13 10:19:59;;;;;;;11.73;5.57;;;18.50;99.90;;;;;;6097215;23;20331;-75
2023/10/13 10:22:35;;;;;;;11.40;5.60;;;18.70;99.90;;;;;;6122419;23;20025;-76
2023/10/13 10:25:02;;;;;;;11.73;4.68;;;18.50;99.90;;;;;;6098096;23;20037;-76
2023/10/13 10:27:29;;;;;;;18.40;5.28;;;17.50;99.90;;;;;;6122384;23;20093;-75
2023/10/13 10:29:56;;;;;;;13.52;6.32;;;18.40;99.90;;;;;;6121705;23;20014;-75
2023/10/13 10:32:32;;;;;;;9.88;4.70;;;18.70;99.90;;;;;;6097933;23;20018;-76
2023/10/13 10:35:14;;;;;;;18.25;5.25;;;18.60;99.90;;;;;;6122129;23;20077;-76
2023/10/13 10:37:46;;;;;;;15.02;5.65;;;18.60;99.90;;;;;;6098217;23;20013;-76
2023/10/13 10:40:46;;;;;;;15.65;5.65;;;18.30;99.90;;;;;;6121684;23;20014;-77
2023/10/13 10:43:08;;;;;;;12.18;5.07;;;18.20;99.90;;;;;;6120643;23;20036;-76
2023/10/13 10:45:36;;;;;;;14.45;6.05;;;18.70;99.90;;;;;;6122625;23;20021;-76
2023/10/13 10:48:16;;;;;;;11.60;4.63;;;18.60;99.90;;;;;;6097785;23;20056;-76
2023/10/13 10:50:43;;;;;;;12.38;5.28;;;18.80;99.90;;;;;;6097157;23;20098;-76
2023/10/13 10:53:09;;;;;;;11.05;4.70;;;18.20;99.90;;;;;;6122100;23;20018;-76
2023/10/13 10:55:38;;;;;;;9.80;5.13;;;18.60;99.90;;;;;;6097592;23;20010;-76
2023/10/13 10:58:23;;;;;;;10.25;4.72;;;18.30;99.90;;;;;;6097840;23;20033;-76
2023/10/13 11:00:50;;;;;;;14.07;5.57;;;18.40;99.90;;;;;;6121667;23;20020;-76
2023/10/13 11:03:17;;;;;;;12.60;5.13;;;19.10;99.90;;;;;;6097289;23;20089;-76
2023/10/13 11:05:47;;;;;;;13.95;4.97;;;17.70;99.90;;;;;;6097600;23;20356;-76
2023/10/13 11:08:31;;;;;;;12.55;4.80;;;18.00;99.90;;;;;;6121857;23;20057;-76
2023/10/13 11:10:58;;;;;;;13.32;4.70;;;18.10;99.90;;;;;;6121601;23;20014;-76
2023/10/13 11:13:23;;;;;;;13.10;5.28;;;18.60;99.90;;;;;;6097869;23;20435;-76
2023/10/13 11:15:50;;;;;;;15.20;5.32;;;18.50;99.90;;;;;;6121791;23;20012;-76
2023/10/13 11:18:20;;;;;;;14.05;5.43;;;18.20;99.90;;;;;;6097191;23;20456;-76
2023/10/13 11:20:49;;;;;;;14.93;5.60;;;18.40;99.90;;;;;;6121154;23;20075;-76
2023/10/13 11:23:15;;;;;;;16.13;5.90;;;19.00;99.90;;;;;;6121945;23;20014;-76
2023/10/13 11:25:44;;;;;;;12.82;6.28;;;18.40;99.90;;;;;;6121948;23;20462;-76
2023/10/13 11:28:17;;;;;;;12.23;4.53;;;18.70;99.90;;;;;;6121663;23;20018;-76
2023/10/13 11:30:49;;;;;;;11.98;4.90;;;17.90;99.90;;;;;;6120607;23;20006;-76
2023/10/13 11:33:23;;;;;;;9.95;5.07;;;18.80;99.90;;;;;;6119963;23;20064;-76
2023/10/13 11:35:55;;;;;;;13.63;5.10;;;18.80;99.90;;;;;;6120978;23;20344;-76
2023/10/13 11:38:27;;;;;;;13.95;5.28;;;19.00;99.90;;;;;;6096576;23;20518;-76
2023/10/13 11:48:36;;;;;;;14.43;5.40;;;18.10;99.90;;;;;;6120527;23;20025;-76
2023/10/13 11:51:08;;;;;;;12.52;5.18;;;18.80;99.90;;;;;;6096547;23;20363;-75
2023/10/13 11:53:38;;;;;;;14.32;5.80;;;18.70;99.90;;;;;;6120546;23;20093;-75
2023/10/13 11:56:08;;;;;;;13.45;5.53;;;18.50;99.90;;;;;;6121000;23;20021;-75
2023/10/13 11:58:34;;;;;;;14.05;6.13;;;20.90;99.90;;;;;;6095934;23;20514;-75
2023/10/13 12:06:46;;;;;;;13.13;5.20;;;17.90;99.90;;;;;;6120978;23;20018;-75
2023/10/13 12:11:50;;;;;;;15.38;5.57;;;18.80;99.90;;;;;;6120729;23;20022;-76
2023/10/13 12:14:17;;;;;;;16.45;5.63;;;18.70;99.90;;;;;;6120077;23;20025;-76
2023/10/13 12:16:50;;;;;;;13.80;5.45;;;18.60;99.90;;;;;;6096642;23;20085;-76
2023/10/13 12:19:17;;;;;;;9.15;4.43;;;18.90;99.90;;;;;;6096969;23;20552;-76
2023/10/13 12:21:47;;;;;;;15.57;5.85;;;17.80;99.90;;;;;;6096510;23;20351;-76
2023/10/13 12:26:58;;;;;;;11.05;5.68;;;18.90;99.90;;;;;;6120667;23;20026;-74
2023/10/13 12:29:28;;;;;;;12.52;5.18;;;19.00;99.90;;;;;;6119346;23;20018;-74
2023/10/13 12:32:14;;;;;;;14.40;6.00;;;18.40;99.90;;;;;;6121701;23;20025;-74
2023/10/13 12:53:48;;;;;;;13.30;6.28;;;18.70;99.90;;;;;;6122820;23;20018;-74
2023/10/13 12:56:15;;;;;;;12.52;6.70;;;18.70;99.90;;;;;;6098455;23;20014;-75
2023/10/13 12:58:41;;;;;;;15.75;6.45;;;18.30;99.90;;;;;;6120551;23;20022;-75
2023/10/13 13:01:07;;;;;;;15.52;6.35;;;17.90;99.90;;;;;;6123264;23;20017;-75
2023/10/13 13:03:33;;;;;;;14.50;6.57;;;18.70;99.90;;;;;;6121655;23;20017;-75
2023/10/13 13:06:00;;;;;;;12.30;5.78;;;18.80;99.90;;;;;;6123286;23;20341;-74
2023/10/13 13:08:26;;;;;;;15.85;5.60;;;18.70;99.90;;;;;;6098280;23;20014;-75
2023/10/13 13:10:52;;;;;;;11.73;5.80;;;18.60;99.90;;;;;;6122159;23;20191;-74
2023/10/13 13:13:24;;;;;;;14.20;6.57;;;18.90;99.90;;;;;;6122708;23;20014;-74
2023/10/13 13:15:50;;;;;;;18.05;6.25;;;18.80;99.90;;;;;;6122394;23;20010;-75
2023/10/13 13:18:16;;;;;;;23.50;7.40;;;19.00;99.90;;;;;;6121985;23;20312;-74
2023/10/13 13:20:52;;;;;;;18.25;7.80;;;17.90;99.90;;;;;;6097065;23;20450;-75
2023/10/13 13:23:18;;;;;;;21.13;7.75;;;18.50;99.90;;;;;;6121445;23;20422;-74
2023/10/13 13:25:47;;;;;;;17.15;7.22;;;18.70;99.90;;;;;;6122364;23;20464;-74
2023/10/13 13:28:15;;;;;;;17.55;7.68;;;18.50;99.90;;;;;;6122195;23;20018;-74
2023/10/13 13:30:44;;;;;;;19.13;8.10;;;18.70;99.90;;;;;;6096740;23;20014;-75
2023/10/13 13:33:14;;;;;;;17.58;6.85;;;18.80;99.90;;;;;;6098066;23;20093;-74
2023/10/13 13:35:42;;;;;;;20.90;8.25;;;18.90;99.90;;;;;;6096068;23;20038;-75
2023/10/13 13:38:51;;;;;;;13.02;7.18;;;18.00;99.90;;;;;;6122448;23;20080;-75
2023/10/13 13:40:58;;;;;;;17.08;7.00;;;18.80;99.90;;;;;;6114253;23;20125;-76
2023/10/13 13:43:41;;;;;;;16.15;6.60;;;18.80;99.90;;;;;;6123023;23;20089;-77
2023/10/13 13:46:10;;;;;;;16.60;6.25;;;19.10;99.90;;;;;;6098100;23;20010;-76
2023/10/13 13:48:37;;;;;;;14.55;5.95;;;18.90;99.90;;;;;;6097584;23;20061;-76
2023/10/13 13:51:14;;;;;;;16.67;6.22;;;19.30;99.90;;;;;;6121439;23;20041;-76
2023/10/13 13:53:42;;;;;;;13.07;6.95;;;18.70;99.90;;;;;;6097504;23;20009;-77
2023/10/13 13:56:08;;;;;;;16.92;6.60;;;18.60;99.90;;;;;;6098142;23;20017;-76
2023/10/13 13:58:34;;;;;;;11.45;5.85;;;18.00;99.90;;;;;;6121965;23;20355;-77
2023/10/13 14:01:15;;;;;;;17.10;7.13;;;18.60;99.90;;;;;;6122149;23;20014;-77
2023/10/13 14:03:46;;;;;;;16.73;6.60;;;18.70;99.90;;;;;;6097022;23;20081;-77
2023/10/13 14:06:26;;;;;;;15.48;5.95;;;19.00;99.90;;;;;;6098299;23;20018;-79
2023/10/13 14:08:57;;;;;;;16.67;6.50;;;18.50;99.90;;;;;;6122377;23;20014;-77
2023/10/13 14:16:53;;;;;;;16.25;7.40;;;19.00;99.90;;;;;;6122087;23;20097;-77
2023/10/13 14:19:26;;;;;;;13.27;5.65;;;19.20;99.90;;;;;;6120901;23;20258;-77
2023/10/13 14:21:55;;;;;;;20.55;7.13;;;18.50;99.90;;;;;;6097448;23;20010;-77
2023/10/13 14:24:28;;;;;;;16.67;6.78;;;18.50;99.90;;;;;;6122638;23;20340;-77
2023/10/13 14:27:08;;;;;;;14.60;5.80;;;18.40;99.90;;;;;;6122735;23;20021;-77
2023/10/13 14:29:40;;;;;;;18.23;6.93;;;18.70;99.90;;;;;;6097238;23;20360;-77
2023/10/13 14:32:11;;;;;;;17.27;6.45;;;19.10;99.90;;;;;;6097668;23;20010;-77
2023/10/13 14:34:39;;;;;;;17.10;8.02;;;18.50;99.90;;;;;;6122105;23;20014;-77
2023/10/13 14:37:04;;;;;;;19.90;8.00;;;18.80;99.90;;;;;;6121780;23;20364;-77
2023/10/13 14:39:30;;;;;;;16.10;6.60;;;18.90;99.90;;;;;;6122189;23;20098;-77
2023/10/13 14:41:56;;;;;;;18.15;6.95;;;19.00;99.90;;;;;;6122314;23;20018;-77
2023/10/13 14:44:26;;;;;;;17.42;7.45;;;18.90;99.90;;;;;;6122456;23;20013;-77
2023/10/13 14:46:54;;;;;;;16.83;6.68;;;18.90;99.90;;;;;;6097374;23;20487;-77
2023/10/13 14:49:20;;;;;;;19.17;7.50;;;18.80;99.90;;;;;;6122330;23;20030;-77
2023/10/13 14:51:46;;;;;;;16.83;6.07;;;18.70;99.90;;;;;;6121322;23;20013;-77
2023/10/13 14:54:14;;;;;;;23.80;7.82;;;18.30;99.90;;;;;;6122536;23;20037;-77
2023/10/13 14:56:42;;;;;;;21.88;7.50;;;18.80;99.90;;;;;;6097556;23;20392;-77
2023/10/13 14:59:14;;;;;;;15.70;6.78;;;18.80;99.90;;;;;;6097529;23;20014;-77
2023/10/13 15:01:40;;;;;;;18.83;7.10;;;19.00;99.90;;;;;;6121088;23;20015;-77
2023/10/13 15:04:06;;;;;;;17.25;7.13;;;18.90;99.90;;;;;;6097801;23;20487;-77
2023/10/13 15:06:32;;;;;;;19.42;7.88;;;18.90;99.90;;;;;;6097790;23;20458;-77
2023/10/13 15:08:59;;;;;;;19.40;7.15;;;18.40;99.90;;;;;;6097272;23;20092;-77
2023/10/13 15:11:38;;;;;;;22.15;8.57;;;18.00;99.90;;;;;;6097381;23;20009;-77
2023/10/13 15:14:06;;;;;;;19.55;6.53;;;19.00;99.90;;;;;;6121667;23;20016;-77
2023/10/13 15:16:35;;;;;;;14.88;6.82;;;18.60;99.90;;;;;;6096632;23;20010;-77
2023/10/13 15:19:03;;;;;;;21.23;7.90;;;18.80;99.90;;;;;;6121664;23;20068;-77
2023/10/13 15:21:34;;;;;;;18.63;6.97;;;18.90;99.90;;;;;;6097091;23;20093;-77
2023/10/13 15:24:03;;;;;;;19.25;7.63;;;19.20;99.90;;;;;;6096844;23;20510;-77
2023/10/13 15:26:37;;;;;;;20.30;7.22;;;19.10;99.90;;;;;;6096316;23;20097;-77
2023/10/13 15:29:08;;;;;;;19.83;8.00;;;19.50;99.90;;;;;;6121787;23;20010;-77
2023/10/13 15:34:14;;;;;;;19.80;8.70;;;18.80;99.90;;;;;;6121859;23;20597;-77
2023/10/13 15:36:42;;;;;;;17.80;7.65;;;19.30;99.90;;;;;;6095692;23;20023;-77
2023/10/13 15:39:15;;;;;;;21.77;8.07;;;19.00;99.90;;;;;;6095988;23;20025;-77
2023/10/13 15:41:41;;;;;;;21.20;7.20;;;19.10;99.90;;;;;;6095868;23;20021;-77
2023/10/13 15:44:12;;;;;;;20.90;7.70;;;19.00;99.90;;;;;;6121571;23;20045;-77
2023/10/13 15:46:39;;;;;;;19.10;7.60;;;19.00;99.90;;;;;;6120002;23;20017;-77
2023/10/13 15:49:05;;;;;;;25.70;8.38;;;18.90;99.90;;;;;;6122747;23;20060;-76
2023/10/13 15:51:37;;;;;;;22.02;8.35;;;18.70;99.90;;;;;;6122805;23;20014;-76
2023/10/13 15:54:04;;;;;;;23.35;7.60;;;18.90;99.90;;;;;;6096589;23;20018;-75
2023/10/13 15:56:33;;;;;;;19.63;7.63;;;19.00;99.90;;;;;;6096670;23;20133;-76
2023/10/13 15:59:01;;;;;;;20.30;6.45;;;19.30;99.90;;;;;;6119476;23;20352;-76
2023/10/13 16:01:28;;;;;;;20.55;7.43;;;19.10;99.90;;;;;;6121545;23;20025;-76
2023/10/13 16:03:53;;;;;;;17.92;7.28;;;19.10;99.90;;;;;;6096801;23;20093;-76
2023/10/13 16:06:19;;;;;;;15.95;6.40;;;18.90;99.90;;;;;;6119841;23;20064;-75
2023/10/13 16:08:45;;;;;;;23.10;7.72;;;19.00;99.90;;;;;;6096413;23;20115;-75
2023/10/13 16:11:17;;;;;;;16.67;6.05;;;18.90;99.90;;;;;;6121356;23;20018;-76
2023/10/13 16:13:51;;;;;;;17.73;6.28;;;18.80;99.90;;;;;;6122123;23;20006;-76
2023/10/13 16:16:25;;;;;;;16.05;6.20;;;19.30;99.90;;;;;;6098573;23;20010;-76
2023/10/13 16:18:52;;;;;;;19.15;6.85;;;18.70;99.90;;;;;;6097538;23;20053;-75
2023/10/13 16:21:19;;;;;;;13.30;5.28;;;18.80;99.90;;;;;;6097113;23;20475;-75
2023/10/13 16:23:48;;;;;;;17.25;5.80;;;19.50;99.90;;;;;;6121046;23;20021;-75
2023/10/13 16:26:14;;;;;;;17.40;5.50;;;19.10;99.90;;;;;;6121866;23;20025;-75
2023/10/13 16:28:40;;;;;;;13.95;6.10;;;18.80;99.90;;;;;;6120584;23;20018;-76
2023/10/13 16:31:09;;;;;;;16.38;5.72;;;19.10;99.90;;;;;;6095597;23;20006;-76
2023/10/13 16:33:41;;;;;;;21.50;6.10;;;19.20;99.90;;;;;;6121614;23;20089;-75
2023/10/13 16:36:09;;;;;;;15.60;6.13;;;19.00;99.90;;;;;;6121690;23;20348;-78
2023/10/13 16:38:38;;;;;;;15.20;5.13;;;19.20;99.90;;;;;;6096709;23;20356;-76
2023/10/13 16:41:12;;;;;;;16.67;6.53;;;19.30;99.90;;;;;;6095737;23;20010;-76
2023/10/13 16:43:39;;;;;;;14.75;5.70;;;19.10;99.90;;;;;;6118672;23;20014;-76
2023/10/13 16:46:11;;;;;;;17.23;4.72;;;19.00;99.90;;;;;;6119166;23;20025;-77
2023/10/13 16:48:40;;;;;;;13.43;5.43;;;19.40;99.90;;;;;;6120914;23;20010;-77